sensor_id;sensor_type;location;lat;lon;timestamp;pressure;altitude;pressure_sealevel;temperature;humidity
25156;BME280;71253;51.496;7.606;2023-11-19T00:03:27;99515.19;;;8.91;100.00
25156;BME280;71253;51.496;7.606;2023-11-19T00:08:29;99482.50;;;8.96;100.00
25156;BME280;71253;51.496;7.606;2023-11-19T00:13:32;99487.66;;;9.01;100.00
25156;BME280;71253;51.496;7.606;2023-11-19T00:18:34;99478.19;;;9.05;100.00
25156;BME280;71253;51.496;7.606;2023-11-19T00:23:36;99487.63;;;9.10;100.00
25156;BME280;71253;51.496;7.606;2023-11-19T00:28:38;99510.84;;;9.12;100.00
25156;BME280;71253;51.496;7.606;2023-11-19T00:33:40;99502.25;;;9.16;100.00
25156;BME280;71253;51.496;7.606;2023-11-19T00:38:45;99499.63;;;9.22;100.00
25156;BME280;71253;51.496;7.606;2023-11-19T00:43:46;99516.81;;;9.32;100.00
25156;BME280;71253;51.496;7.606;2023-11-19T00:48:48;99506.47;;;9.34;100.00
25156;BME280;71253;51.496;7.606;2023-11-19T00:53:50;99480.59;;;9.49;100.00
25156;BME280;71253;51.496;7.606;2023-11-19T00:58:51;99486.53;;;9.71;100.00
25156;BME280;71253;51.496;7.606;2023-11-19T01:03:53;99474.41;;;9.82;100.00
25156;BME280;71253;51.496;7.606;2023-11-19T01:08:56;99484.66;;;9.97;100.00
25156;BME280;71253;51.496;7.606;2023-11-19T01:13:57;99464.81;;;9.98;100.00
25156;BME280;71253;51.496;7.606;2023-11-19T01:18:59;99462.16;;;10.09;100.00
25156;BME280;71253;51.496;7.606;2023-11-19T01:24:06;99460.41;;;10.17;100.00
25156;BME280;71253;51.496;7.606;2023-11-19T01:29:07;99456.00;;;10.30;100.00
25156;BME280;71253;51.496;7.606;2023-11-19T01:34:10;99469.78;;;10.32;100.00
25156;BME280;71253;51.496;7.606;2023-11-19T01:39:11;99475.84;;;10.26;100.00
25156;BME280;71253;51.496;7.606;2023-11-19T01:44:13;99482.75;;;10.29;100.00
25156;BME280;71253;51.496;7.606;2023-11-19T01:49:15;99464.66;;;10.21;100.00
25156;BME280;71253;51.496;7.606;2023-11-19T01:54:18;99450.88;;;10.20;100.00
25156;BME280;71253;51.496;7.606;2023-11-19T01:59:20;99439.69;;;10.20;100.00
25156;BME280;71253;51.496;7.606;2023-11-19T02:04:22;99448.31;;;10.19;100.00
25156;BME280;71253;51.496;7.606;2023-11-19T02:09:24;99444.03;;;10.15;100.00
25156;BME280;71253;51.496;7.606;2023-11-19T02:14:26;99425.94;;;10.15;100.00
25156;BME280;71253;51.496;7.606;2023-11-19T02:19:28;99435.34;;;10.30;100.00
25156;BME280;71253;51.496;7.606;2023-11-19T02:24:31;99429.25;;;10.32;100.00
25156;BME280;71253;51.496;7.606;2023-11-19T02:29:33;99435.25;;;10.39;100.00
25156;BME280;71253;51.496;7.606;2023-11-19T02:34:35;99430.06;;;10.40;100.00
25156;BME280;71253;51.496;7.606;2023-11-19T02:39:36;99409.31;;;10.46;100.00
25156;BME280;71253;51.496;7.606;2023-11-19T02:44:38;99414.47;;;10.49;100.00
25156;BME280;71253;51.496;7.606;2023-11-19T02:49:40;99412.63;;;10.62;100.00
25156;BME280;71253;51.496;7.606;2023-11-19T02:54:43;99397.91;;;10.64;100.00
25156;BME280;71253;51.496;7.606;2023-11-19T02:59:44;99403.06;;;10.69;100.00
25156;BME280;71253;51.496;7.606;2023-11-19T03:04:46;99403.09;;;10.64;100.00
25156;BME280;71253;51.496;7.606;2023-11-19T03:09:48;99390.91;;;10.74;100.00
25156;BME280;71253;51.496;7.606;2023-11-19T03:14:50;99396.06;;;10.77;100.00
25156;BME280;71253;51.496;7.606;2023-11-19T03:19:52;99388.28;;;10.78;100.00
25156;BME280;71253;51.496;7.606;2023-11-19T03:24:53;99374.34;;;10.90;100.00
25156;BME280;71253;51.496;7.606;2023-11-19T03:29:55;99370.72;;;11.03;100.00
25156;BME280;71253;51.496;7.606;2023-11-19T03:34:57;99357.75;;;11.06;100.00
25156;BME280;71253;51.496;7.606;2023-11-19T03:39:59;99354.38;;;11.01;100.00
25156;BME280;71253;51.496;7.606;2023-11-19T03:45:02;99371.53;;;11.09;100.00
25156;BME280;71253;51.496;7.606;2023-11-19T03:50:05;99373.22;;;11.11;100.00
25156;BME280;71253;51.496;7.606;2023-11-19T03:55:07;99375.84;;;11.10;100.00
25156;BME280;71253;51.496;7.606;2023-11-19T04:00:09;99378.53;;;11.00;100.00
25156;BME280;71253;51.496;7.606;2023-11-19T04:05:14;99395.94;;;10.89;100.00
25156;BME280;71253;51.496;7.606;2023-11-19T04:10:16;99395.97;;;10.88;100.00
25156;BME280;71253;51.496;7.606;2023-11-19T04:15:17;99397.81;;;10.75;100.00
25156;BME280;71253;51.496;7.606;2023-11-19T04:20:19;99389.28;;;10.65;100.00
25156;BME280;71253;51.496;7.606;2023-11-19T04:25:21;99402.28;;;10.59;100.00
25156;BME280;71253;51.496;7.606;2023-11-19T04:30:25;99398.91;;;10.52;100.00
25156;BME280;71253;51.496;7.606;2023-11-19T04:35:26;99393.69;;;10.60;100.00
25156;BME280;71253;51.496;7.606;2023-11-19T04:40:28;99391.28;;;10.37;100.00
25156;BME280;71253;51.496;7.606;2023-11-19T04:45:30;99383.47;;;10.45;100.00
25156;BME280;71253;51.496;7.606;2023-11-19T04:50:31;99401.56;;;10.46;100.00
25156;BME280;71253;51.496;7.606;2023-11-19T04:55:33;99408.47;;;10.44;100.00
25156;BME280;71253;51.496;7.606;2023-11-19T05:00:35;99396.47;;;10.37;100.00
25156;BME280;71253;51.496;7.606;2023-11-19T05:05:36;99405.06;;;10.38;100.00
25156;BME280;71253;51.496;7.606;2023-11-19T05:10:38;99394.88;;;10.24;100.00
25156;BME280;71253;51.496;7.606;2023-11-19T05:15:39;99396.63;;;10.17;100.00
25156;BME280;71253;51.496;7.606;2023-11-19T05:20:41;99396.63;;;10.16;100.00
25156;BME280;71253;51.496;7.606;2023-11-19T05:25:43;99404.25;;;10.34;100.00
25156;BME280;71253;51.496;7.606;2023-11-19T05:30:44;99397.28;;;10.44;100.00
25156;BME280;71253;51.496;7.606;2023-11-19T05:35:46;99387.84;;;10.40;100.00
25156;BME280;71253;51.496;7.606;2023-11-19T05:40:48;99411.88;;;10.48;100.00
25156;BME280;71253;51.496;7.606;2023-11-19T05:45:49;99413.75;;;10.34;100.00
25156;BME280;71253;51.496;7.606;2023-11-19T05:50:51;99421.50;;;10.34;100.00
25156;BME280;71253;51.496;7.606;2023-11-19T05:55:52;99410.38;;;10.25;100.00
25156;BME280;71253;51.496;7.606;2023-11-19T06:00:55;99405.16;;;10.30;100.00
25156;BME280;71253;51.496;7.606;2023-11-19T06:05:57;99399.75;;;10.53;100.00
25156;BME280;71253;51.496;7.606;2023-11-19T06:10:58;99402.28;;;10.59;100.00
25156;BME280;71253;51.496;7.606;2023-11-19T06:16:00;99403.97;;;10.63;100.00
25156;BME280;71253;51.496;7.606;2023-11-19T06:21:02;99398.56;;;10.85;100.00
25156;BME280;71253;51.496;7.606;2023-11-19T06:26:04;99408.06;;;10.84;100.00
25156;BME280;71253;51.496;7.606;2023-11-19T06:31:07;99423.81;;;10.63;100.00
25156;BME280;71253;51.496;7.606;2023-11-19T06:36:09;99426.53;;;10.47;100.00
25156;BME280;71253;51.496;7.606;2023-11-19T06:41:11;99430.00;;;10.46;100.00
25156;BME280;71253;51.496;7.606;2023-11-19T06:46:17;99425.78;;;10.39;100.00
25156;BME280;71253;51.496;7.606;2023-11-19T06:51:19;99429.50;;;10.01;100.00
25156;BME280;71253;51.496;7.606;2023-11-19T06:56:22;99436.31;;;10.09;100.00
25156;BME280;71253;51.496;7.606;2023-11-19T07:01:24;99447.31;;;10.37;100.00
25156;BME280;71253;51.496;7.606;2023-11-19T07:06:26;99456.06;;;10.23;100.00
25156;BME280;71253;51.496;7.606;2023-11-19T07:11:31;99463.81;;;10.20;100.00
25156;BME280;71253;51.496;7.606;2023-11-19T07:16:34;99474.94;;;10.35;100.00
25156;BME280;71253;51.496;7.606;2023-11-19T07:21:36;99474.09;;;10.34;100.00
25156;BME280;71253;51.496;7.606;2023-11-19T07:26:41;99468.03;;;10.35;100.00
25156;BME280;71253;51.496;7.606;2023-11-19T07:31:43;99478.34;;;10.40;100.00
25156;BME280;71253;51.496;7.606;2023-11-19T07:36:46;99481.75;;;10.43;99.80
25156;BME280;71253;51.496;7.606;2023-11-19T07:41:49;99484.34;;;10.43;99.71
25156;BME280;71253;51.496;7.606;2023-11-19T07:46:51;99498.16;;;10.44;100.00
25156;BME280;71253;51.496;7.606;2023-11-19T07:51:53;99507.50;;;10.59;99.22
25156;BME280;71253;51.496;7.606;2023-11-19T07:56:54;99508.25;;;10.70;99.07
25156;BME280;71253;51.496;7.606;2023-11-19T08:01:56;99517.59;;;10.85;96.89
25156;BME280;71253;51.496;7.606;2023-11-19T08:06:58;99510.66;;;10.90;94.86
25156;BME280;71253;51.496;7.606;2023-11-19T08:11:59;99510.09;;;10.57;97.06
25156;BME280;71253;51.496;7.606;2023-11-19T08:17:01;99520.53;;;10.43;97.22
25156;BME280;71253;51.496;7.606;2023-11-19T08:22:03;99529.22;;;10.39;97.10
25156;BME280;71253;51.496;7.606;2023-11-19T08:27:04;99537.78;;;10.46;96.97
25156;BME280;71253;51.496;7.606;2023-11-19T08:32:06;99538.41;;;10.77;94.72
25156;BME280;71253;51.496;7.606;2023-11-19T08:37:08;99527.94;;;10.89;94.06
25156;BME280;71253;51.496;7.606;2023-11-19T08:42:09;99544.44;;;10.74;94.77
25156;BME280;71253;51.496;7.606;2023-11-19T08:47:11;99538.47;;;10.65;95.25
25156;BME280;71253;51.496;7.606;2023-11-19T08:52:14;99536.75;;;10.65;95.99
25156;BME280;71253;51.496;7.606;2023-11-19T08:57:15;99535.69;;;10.86;95.10
25156;BME280;71253;51.496;7.606;2023-11-19T09:02:17;99543.41;;;10.95;94.50
25156;BME280;71253;51.496;7.606;2023-11-19T09:07:19;99534.63;;;11.10;93.92
25156;BME280;71253;51.496;7.606;2023-11-19T09:12:23;99542.84;;;11.49;90.54
25156;BME280;71253;51.496;7.606;2023-11-19T09:17:25;99550.63;;;11.46;90.36
25156;BME280;71253;51.496;7.606;2023-11-19T09:22:27;99541.63;;;10.97;93.43
25156;BME280;71253;51.496;7.606;2023-11-19T09:27:28;99547.84;;;10.83;93.04
25156;BME280;71253;51.496;7.606;2023-11-19T09:32:30;99555.53;;;10.89;92.80
25156;BME280;71253;51.496;7.606;2023-11-19T09:37:32;99537.34;;;10.96;92.98
25156;BME280;71253;51.496;7.606;2023-11-19T09:42:43;99542.28;;;11.19;91.87
25156;BME280;71253;51.496;7.606;2023-11-19T09:47:46;99545.63;;;11.29;91.15
25156;BME280;71253;51.496;7.606;2023-11-19T09:52:48;99540.56;;;11.21;91.01
25156;BME280;71253;51.496;7.606;2023-11-19T09:57:51;99537.81;;;11.33;90.55
25156;BME280;71253;51.496;7.606;2023-11-19T10:02:54;99544.69;;;11.36;89.01
25156;BME280;71253;51.496;7.606;2023-11-19T10:07:57;99544.66;;;11.39;88.29
25156;BME280;71253;51.496;7.606;2023-11-19T10:12:58;99540.28;;;11.47;87.03
25156;BME280;71253;51.496;7.606;2023-11-19T10:18:00;99529.78;;;11.56;87.73
25156;BME280;71253;51.496;7.606;2023-11-19T10:23:02;99518.84;;;12.02;84.72
25156;BME280;71253;51.496;7.606;2023-11-19T10:28:03;99530.97;;;13.08;80.56
25156;BME280;71253;51.496;7.606;2023-11-19T10:33:14;99526.88;;;12.95;80.97
25156;BME280;71253;51.496;7.606;2023-11-19T10:38:16;99519.56;;;12.14;82.91
25156;BME280;71253;51.496;7.606;2023-11-19T10:43:18;99509.72;;;11.72;83.61
25156;BME280;71253;51.496;7.606;2023-11-19T10:48:20;99515.94;;;11.57;85.74
25156;BME280;71253;51.496;7.606;2023-11-19T10:53:23;99522.81;;;11.62;84.79
25156;BME280;71253;51.496;7.606;2023-11-19T10:58:28;99511.81;;;11.43;86.54
25156;BME280;71253;51.496;7.606;2023-11-19T11:03:36;99521.25;;;11.48;86.66
25156;BME280;71253;51.496;7.606;2023-11-19T11:08:40;99504.19;;;11.32;86.60
25156;BME280;71253;51.496;7.606;2023-11-19T11:13:44;99503.25;;;11.36;86.51
25156;BME280;71253;51.496;7.606;2023-11-19T11:18:49;99500.59;;;11.42;85.54
25156;BME280;71253;51.496;7.606;2023-11-19T11:29:04;99516.16;;;11.42;85.64
25156;BME280;71253;51.496;7.606;2023-11-19T11:39:33;99530.16;;;11.23;87.15
25156;BME280;71253;51.496;7.606;2023-11-19T11:44:58;99509.28;;;11.38;86.83
25156;BME280;71253;51.496;7.606;2023-11-19T11:50:10;99514.38;;;11.44;85.90
25156;BME280;71253;51.496;7.606;2023-11-19T11:55:14;99509.19;;;11.47;86.48
25156;BME280;71253;51.496;7.606;2023-11-19T12:00:32;99509.97;;;11.51;86.95
25156;BME280;71253;51.496;7.606;2023-11-19T12:05:42;99494.13;;;11.74;84.76
25156;BME280;71253;51.496;7.606;2023-11-19T12:10:48;99483.09;;;12.23;83.08
25156;BME280;71253;51.496;7.606;2023-11-19T12:20:59;99469.19;;;12.27;79.92
25156;BME280;71253;51.496;7.606;2023-11-19T12:26:01;99495.38;;;12.13;79.13
25156;BME280;71253;51.496;7.606;2023-11-19T12:31:09;99483.44;;;12.00;80.75
25156;BME280;71253;51.496;7.606;2023-11-19T12:36:11;99474.94;;;11.92;80.77
25156;BME280;71253;51.496;7.606;2023-11-19T12:41:13;99473.94;;;12.00;81.11
25156;BME280;71253;51.496;7.606;2023-11-19T12:46:19;99462.91;;;11.84;80.48
25156;BME280;71253;51.496;7.606;2023-11-19T12:51:21;99463.03;;;11.74;82.62
25156;BME280;71253;51.496;7.606;2023-11-19T12:56:22;99459.78;;;11.59;82.12
25156;BME280;71253;51.496;7.606;2023-11-19T13:01:24;99455.41;;;11.65;82.50
25156;BME280;71253;51.496;7.606;2023-11-19T13:06:26;99454.59;;;11.61;82.64
25156;BME280;71253;51.496;7.606;2023-11-19T13:11:32;99448.56;;;11.57;82.38
25156;BME280;71253;51.496;7.606;2023-11-19T13:16:36;99440.91;;;11.53;84.23
25156;BME280;71253;51.496;7.606;2023-11-19T13:21:38;99453.13;;;11.42;85.99
25156;BME280;71253;51.496;7.606;2023-11-19T13:26:40;99457.28;;;10.79;96.42
25156;BME280;71253;51.496;7.606;2023-11-19T13:31:42;99452.47;;;10.41;100.00
25156;BME280;71253;51.496;7.606;2023-11-19T13:36:43;99452.59;;;10.27;100.00
25156;BME280;71253;51.496;7.606;2023-11-19T13:41:45;99445.59;;;10.37;100.00
25156;BME280;71253;51.496;7.606;2023-11-19T13:46:46;99448.19;;;10.37;100.00
25156;BME280;71253;51.496;7.606;2023-11-19T13:51:48;99429.19;;;10.38;98.56
25156;BME280;71253;51.496;7.606;2023-11-19T13:56:50;99436.63;;;10.76;94.27
25156;BME280;71253;51.496;7.606;2023-11-19T14:01:51;99442.66;;;10.77;93.78
25156;BME280;71253;51.496;7.606;2023-11-19T14:06:53;99438.34;;;10.74;94.14
25156;BME280;71253;51.496;7.606;2023-11-19T14:11:55;99427.06;;;10.82;94.00
25156;BME280;71253;51.496;7.606;2023-11-19T14:16:56;99427.22;;;10.68;93.80
25156;BME280;71253;51.496;7.606;2023-11-19T14:22:13;99428.75;;;10.84;93.66
25156;BME280;71253;51.496;7.606;2023-11-19T14:27:15;99428.66;;;10.95;92.93
25156;BME280;71253;51.496;7.606;2023-11-19T14:32:17;99431.41;;;10.79;92.39
25156;BME280;71253;51.496;7.606;2023-11-19T14:37:18;99447.97;;;10.62;93.16
25156;BME280;71253;51.496;7.606;2023-11-19T14:42:21;99437.81;;;10.42;94.80
25156;BME280;71253;51.496;7.606;2023-11-19T14:47:23;99443.72;;;10.54;93.71
25156;BME280;71253;51.496;7.606;2023-11-19T14:52:24;99438.53;;;10.56;93.63
25156;BME280;71253;51.496;7.606;2023-11-19T14:57:26;99442.91;;;10.51;96.19
25156;BME280;71253;51.496;7.606;2023-11-19T15:02:28;99449.97;;;10.31;99.67
25156;BME280;71253;51.496;7.606;2023-11-19T15:07:29;99432.72;;;10.31;97.72
25156;BME280;71253;51.496;7.606;2023-11-19T15:12:31;99431.00;;;10.32;98.06
25156;BME280;71253;51.496;7.606;2023-11-19T15:17:32;99425.06;;;10.16;98.31
25156;BME280;71253;51.496;7.606;2023-11-19T15:22:34;99425.16;;;10.04;99.01
25156;BME280;71253;51.496;7.606;2023-11-19T15:27:36;99426.09;;;9.96;99.62
25156;BME280;71253;51.496;7.606;2023-11-19T15:32:38;99418.41;;;9.83;100.00
25156;BME280;71253;51.496;7.606;2023-11-19T15:37:39;99415.91;;;9.70;100.00
25156;BME280;71253;51.496;7.606;2023-11-19T15:42:41;99431.47;;;9.57;100.00
25156;BME280;71253;51.496;7.606;2023-11-19T15:47:43;99429.66;;;9.75;100.00
25156;BME280;71253;51.496;7.606;2023-11-19T15:52:45;99427.06;;;9.79;100.00
25156;BME280;71253;51.496;7.606;2023-11-19T15:57:47;99438.22;;;9.84;100.00
25156;BME280;71253;51.496;7.606;2023-11-19T16:02:49;99424.44;;;9.86;100.00
25156;BME280;71253;51.496;7.606;2023-11-19T16:07:51;99420.19;;;9.73;100.00
25156;BME280;71253;51.496;7.606;2023-11-19T16:12:53;99424.59;;;9.60;100.00
25156;BME280;71253;51.496;7.606;2023-11-19T16:17:55;99422.06;;;9.49;100.00
25156;BME280;71253;51.496;7.606;2023-11-19T16:22:56;99431.47;;;9.63;100.00
25156;BME280;71253;51.496;7.606;2023-11-19T16:27:58;99415.91;;;9.75;100.00
25156;BME280;71253;51.496;7.606;2023-11-19T16:33:00;99426.16;;;9.86;100.00
25156;BME280;71253;51.496;7.606;2023-11-19T16:38:01;99433.00;;;9.88;100.00
25156;BME280;71253;51.496;7.606;2023-11-19T16:43:04;99433.09;;;9.78;100.00
25156;BME280;71253;51.496;7.606;2023-11-19T16:48:05;99443.34;;;9.88;100.00
25156;BME280;71253;51.496;7.606;2023-11-19T16:53:07;99441.66;;;9.87;100.00
25156;BME280;71253;51.496;7.606;2023-11-19T16:58:09;99461.59;;;9.68;100.00
25156;BME280;71253;51.496;7.606;2023-11-19T17:03:11;99457.38;;;9.47;100.00
25156;BME280;71253;51.496;7.606;2023-11-19T17:08:12;99466.00;;;9.39;100.00
25156;BME280;71253;51.496;7.606;2023-11-19T17:13:14;99465.19;;;9.32;100.00
25156;BME280;71253;51.496;7.606;2023-11-19T17:18:16;99459.16;;;9.29;100.00
25156;BME280;71253;51.496;7.606;2023-11-19T17:23:18;99466.91;;;9.32;100.00
25156;BME280;71253;51.496;7.606;2023-11-19T17:28:19;99466.03;;;9.37;100.00
25156;BME280;71253;51.496;7.606;2023-11-19T17:33:21;99471.19;;;9.39;100.00
25156;BME280;71253;51.496;7.606;2023-11-19T17:38:22;99469.50;;;9.30;100.00
25156;BME280;71253;51.496;7.606;2023-11-19T17:43:27;99465.22;;;9.25;100.00
25156;BME280;71253;51.496;7.606;2023-11-19T17:48:30;99456.59;;;9.30;100.00
25156;BME280;71253;51.496;7.606;2023-11-19T17:53:32;99453.94;;;9.45;100.00
25156;BME280;71253;51.496;7.606;2023-11-19T17:58:33;99461.63;;;9.55;100.00
25156;BME280;71253;51.496;7.606;2023-11-19T18:03:35;99453.94;;;9.52;100.00
25156;BME280;71253;51.496;7.606;2023-11-19T18:08:38;99448.78;;;9.47;100.00
25156;BME280;71253;51.496;7.606;2023-11-19T18:13:40;99453.06;;;9.53;100.00
25156;BME280;71253;51.496;7.606;2023-11-19T18:18:42;99458.28;;;9.36;100.00
25156;BME280;71253;51.496;7.606;2023-11-19T18:23:43;99447.13;;;9.35;100.00
25156;BME280;71253;51.496;7.606;2023-11-19T18:28:45;99448.03;;;9.25;100.00
25156;BME280;71253;51.496;7.606;2023-11-19T18:33:47;99429.06;;;9.23;100.00
25156;BME280;71253;51.496;7.606;2023-11-19T18:38:49;99442.88;;;9.20;100.00
25156;BME280;71253;51.496;7.606;2023-11-19T18:43:50;99442.88;;;9.17;100.00
25156;BME280;71253;51.496;7.606;2023-11-19T18:48:52;99440.31;;;9.19;100.00
25156;BME280;71253;51.496;7.606;2023-11-19T18:53:54;99436.88;;;9.14;100.00
25156;BME280;71253;51.496;7.606;2023-11-19T18:58:56;99428.28;;;9.13;100.00
25156;BME280;71253;51.496;7.606;2023-11-19T19:03:59;99431.72;;;9.14;100.00
25156;BME280;71253;51.496;7.606;2023-11-19T19:09:03;99427.41;;;9.07;100.00
25156;BME280;71253;51.496;7.606;2023-11-19T19:14:09;99430.88;;;9.09;100.00
25156;BME280;71253;51.496;7.606;2023-11-19T19:19:12;99430.84;;;9.07;100.00
25156;BME280;71253;51.496;7.606;2023-11-19T19:24:15;99424.88;;;9.04;100.00
25156;BME280;71253;51.496;7.606;2023-11-19T19:29:25;99426.59;;;8.99;100.00
25156;BME280;71253;51.496;7.606;2023-11-19T19:34:28;99419.72;;;8.99;100.00
25156;BME280;71253;51.496;7.606;2023-11-19T19:39:32;99410.25;;;8.95;100.00
25156;BME280;71253;51.496;7.606;2023-11-19T19:44:35;99407.66;;;9.01;100.00
25156;BME280;71253;51.496;7.606;2023-11-19T19:49:38;99400.78;;;9.05;100.00
25156;BME280;71253;51.496;7.606;2023-11-19T19:54:41;99415.41;;;9.04;100.00
25156;BME280;71253;51.496;7.606;2023-11-19T19:59:44;99406.78;;;9.02;100.00
25156;BME280;71253;51.496;7.606;2023-11-19T20:04:46;99389.63;;;9.03;100.00
25156;BME280;71253;51.496;7.606;2023-11-19T20:09:52;99395.59;;;9.08;100.00
25156;BME280;71253;51.496;7.606;2023-11-19T20:14:54;99401.59;;;9.11;100.00
25156;BME280;71253;51.496;7.606;2023-11-19T20:19:56;99390.41;;;9.12;100.00
25156;BME280;71253;51.496;7.606;2023-11-19T20:24:58;99394.72;;;9.13;100.00
25156;BME280;71253;51.496;7.606;2023-11-19T20:30:00;99396.41;;;9.16;100.00
25156;BME280;71253;51.496;7.606;2023-11-19T20:35:02;99401.59;;;9.13;100.00
25156;BME280;71253;51.496;7.606;2023-11-19T20:40:04;99403.31;;;9.12;100.00
25156;BME280;71253;51.496;7.606;2023-11-19T20:45:07;99392.13;;;9.15;100.00
25156;BME280;71253;51.496;7.606;2023-11-19T20:50:09;99406.72;;;9.20;100.00
25156;BME280;71253;51.496;7.606;2023-11-19T20:55:12;99409.31;;;9.20;100.00
25156;BME280;71253;51.496;7.606;2023-11-19T21:00:14;99398.13;;;9.20;100.00
25156;BME280;71253;51.496;7.606;2023-11-19T21:05:16;99400.69;;;9.23;100.00
25156;BME280;71253;51.496;7.606;2023-11-19T21:10:18;99400.69;;;9.25;100.00
25156;BME280;71253;51.496;7.606;2023-11-19T21:15:20;99395.56;;;9.20;100.00
25156;BME280;71253;51.496;7.606;2023-11-19T21:20:22;99397.25;;;9.22;100.00
25156;BME280;71253;51.496;7.606;2023-11-19T21:25:24;99392.09;;;9.21;100.00
25156;BME280;71253;51.496;7.606;2023-11-19T21:30:25;99391.22;;;9.22;100.00
25156;BME280;71253;51.496;7.606;2023-11-19T21:35:27;99396.38;;;9.23;100.00
25156;BME280;71253;51.496;7.606;2023-11-19T21:40:29;99398.06;;;9.29;100.00
25156;BME280;71253;51.496;7.606;2023-11-19T21:45:32;99387.75;;;9.31;100.00
25156;BME280;71253;51.496;7.606;2023-11-19T21:50:33;99382.56;;;9.35;100.00
25156;BME280;71253;51.496;7.606;2023-11-19T21:55:35;99386.78;;;9.45;100.00
25156;BME280;71253;51.496;7.606;2023-11-19T22:00:37;99378.25;;;9.37;100.00
25156;BME280;71253;51.496;7.606;2023-11-19T22:05:39;99389.38;;;9.45;100.00
25156;BME280;71253;51.496;7.606;2023-11-19T22:10:41;99398.84;;;9.45;100.00
25156;BME280;71253;51.496;7.606;2023-11-19T22:15:44;99394.53;;;9.45;100.00
25156;BME280;71253;51.496;7.606;2023-11-19T22:20:46;99379.88;;;9.52;100.00
25156;BME280;71253;51.496;7.606;2023-11-19T22:25:47;99392.75;;;9.57;100.00
25156;BME280;71253;51.496;7.606;2023-11-19T22:30:49;99396.25;;;9.53;100.00
25156;BME280;71253;51.496;7.606;2023-11-19T22:35:51;99396.28;;;9.43;100.00
25156;BME280;71253;51.496;7.606;2023-11-19T22:40:52;99392.00;;;9.42;100.00
25156;BME280;71253;51.496;7.606;2023-11-19T22:45:54;99402.31;;;9.44;100.00
25156;BME280;71253;51.496;7.606;2023-11-19T22:50:56;99396.25;;;9.53;100.00
25156;BME280;71253;51.496;7.606;2023-11-19T22:55:57;99394.50;;;9.58;100.00
25156;BME280;71253;51.496;7.606;2023-11-19T23:00:59;99411.66;;;9.62;100.00
25156;BME280;71253;51.496;7.606;2023-11-19T23:06:01;99385.84;;;9.63;100.00
25156;BME280;71253;51.496;7.606;2023-11-19T23:11:03;99390.97;;;9.68;100.00
25156;BME280;71253;51.496;7.606;2023-11-19T23:16:05;99392.66;;;9.73;100.00
25156;BME280;71253;51.496;7.606;2023-11-19T23:21:07;99402.97;;;9.72;100.00
25156;BME280;71253;51.496;7.606;2023-11-19T23:26:08;99404.72;;;9.70;100.00
25156;BME280;71253;51.496;7.606;2023-11-19T23:31:10;99403.91;;;9.65;100.00
25156;BME280;71253;51.496;7.606;2023-11-19T23:36:12;99398.72;;;9.68;100.00
25156;BME280;71253;51.496;7.606;2023-11-19T23:41:13;99403.00;;;9.70;100.00
25156;BME280;71253;51.496;7.606;2023-11-19T23:46:15;99415.03;;;9.74;100.00
25156;BME280;71253;51.496;7.606;2023-11-19T23:51:16;99413.28;;;9.80;100.00
25156;BME280;71253;51.496;7.606;2023-11-19T23:56:18;99411.56;;;9.77;100.00
